createdAt,value
2018-07-06T00:01:48.814Z,20.20
2018-07-06T00:06:08.994Z,20.00
2018-07-06T00:10:29.175Z,19.80
2018-07-06T00:14:50.237Z,19.90
2018-07-06T00:19:10.564Z,19.40
2018-07-06T00:23:30.768Z,19.80
2018-07-06T00:27:50.931Z,19.40
2018-07-06T00:32:11.208Z,19.90
2018-07-06T00:36:31.461Z,20.00
2018-07-06T00:40:51.679Z,20.20
2018-07-06T00:45:11.899Z,19.50
2018-07-06T00:49:31.967Z,19.70
2018-07-06T00:53:52.101Z,18.80
2018-07-06T00:58:12.303Z,19.30
2018-07-06T01:02:32.365Z,19.60
2018-07-06T01:06:52.564Z,19.60
2018-07-06T01:11:12.670Z,19.90
2018-07-06T01:15:35.708Z,19.60
2018-07-06T01:19:57.252Z,19.00
2018-07-06T01:24:17.269Z,18.70
2018-07-06T01:28:37.335Z,19.00
2018-07-06T01:32:57.443Z,19.20
2018-07-06T01:37:17.583Z,19.20
2018-07-06T01:41:37.738Z,19.00
2018-07-06T01:45:57.706Z,19.20
2018-07-06T01:50:18.013Z,19.40
2018-07-06T01:54:38.340Z,18.70
2018-07-06T01:58:58.479Z,18.00
2018-07-06T02:03:18.624Z,18.60
2018-07-06T02:07:38.832Z,18.70
2018-07-06T02:11:59.061Z,18.40
2018-07-06T02:16:19.216Z,18.60
2018-07-06T02:20:39.383Z,18.70
2018-07-06T02:24:59.417Z,18.70
2018-07-06T02:29:19.548Z,18.50
2018-07-06T02:33:39.807Z,18.70
2018-07-06T02:38:00.015Z,18.90
2018-07-06T02:42:20.302Z,18.90
2018-07-06T02:50:54.966Z,19.30
2018-07-06T02:55:15.083Z,19.20
2018-07-06T02:59:35.181Z,19.00
2018-07-06T03:03:55.640Z,18.70
2018-07-06T03:08:15.835Z,18.80
2018-07-06T03:12:35.884Z,18.80
2018-07-06T03:16:56.147Z,18.50
2018-07-06T03:21:16.294Z,18.40
2018-07-06T03:25:36.725Z,18.80
2018-07-06T03:29:56.848Z,18.60
2018-07-06T03:38:31.365Z,18.60
2018-07-06T03:42:51.650Z,18.40
2018-07-06T03:47:11.886Z,18.50
2018-07-06T03:51:32.336Z,18.50
2018-07-06T04:00:06.771Z,18.00
2018-07-06T04:04:27.051Z,18.30
2018-07-06T04:08:47.070Z,18.10
2018-07-06T04:13:07.247Z,17.80
2018-07-06T04:17:27.466Z,17.70
2018-07-06T04:21:47.572Z,18.20
2018-07-06T04:26:07.935Z,18.30
2018-07-06T04:30:28.003Z,18.20
2018-07-06T04:34:48.179Z,17.90
2018-07-06T04:39:08.278Z,17.80
2018-07-06T04:43:28.544Z,17.60
2018-07-06T04:47:48.798Z,17.70
2018-07-06T04:52:08.938Z,17.40
2018-07-06T04:56:29.128Z,17.30
2018-07-06T05:00:49.359Z,17.60
2018-07-06T05:05:09.501Z,17.60
2018-07-06T05:09:29.621Z,17.80
2018-07-06T05:13:49.668Z,17.70
2018-07-06T05:18:09.814Z,17.70
2018-07-06T05:26:44.461Z,17.90
2018-07-06T05:31:04.713Z,18.20
2018-07-06T05:35:24.749Z,18.10
2018-07-06T05:39:45.075Z,18.50
2018-07-06T05:44:05.396Z,18.60
2018-07-06T05:48:25.525Z,18.70
2018-07-06T05:52:45.702Z,18.70
2018-07-06T05:57:06.006Z,18.70
2018-07-06T06:01:26.042Z,18.60
2018-07-06T06:05:46.264Z,19.00
2018-07-06T06:09:55.083Z,18.40
2018-07-06T06:13:58.090Z,18.30
2018-07-06T06:18:00.858Z,18.50
2018-07-06T06:22:03.716Z,18.90
2018-07-06T06:26:06.580Z,19.20
2018-07-06T06:30:09.548Z,19.40
2018-07-06T06:34:12.528Z,19.50
2018-07-06T06:38:15.405Z,19.70
2018-07-06T06:42:18.549Z,19.40
2018-07-06T06:46:21.433Z,19.40
2018-07-06T06:50:24.442Z,19.60
2018-07-06T06:54:27.386Z,19.20
2018-07-06T06:58:30.346Z,19.50
2018-07-06T07:02:33.302Z,19.60
2018-07-06T07:06:36.259Z,19.50
2018-07-06T07:10:39.131Z,19.50
2018-07-06T07:14:42.030Z,19.70
2018-07-06T07:18:44.897Z,19.40
2018-07-06T07:22:47.877Z,19.40
2018-07-06T07:26:50.789Z,19.70
2018-07-06T07:30:53.665Z,19.30
2018-07-06T07:34:56.534Z,19.50
2018-07-06T07:38:59.610Z,19.00
2018-07-06T07:43:02.505Z,19.60
2018-07-06T07:47:05.641Z,19.60
2018-07-06T07:51:51.973Z,20.00
2018-07-06T07:55:54.874Z,20.00
2018-07-06T07:59:57.741Z,19.60
2018-07-06T08:04:00.647Z,19.90
2018-07-06T08:08:03.582Z,20.20
2018-07-06T08:12:07.270Z,20.50
2018-07-06T08:16:10.260Z,20.70
2018-07-06T08:20:13.291Z,21.00
2018-07-06T08:24:16.762Z,20.90
2018-07-06T08:28:19.570Z,21.20
2018-07-06T08:32:22.500Z,20.90
2018-07-06T08:36:39.324Z,21.40
2018-07-06T08:40:42.167Z,21.90
2018-07-06T08:44:45.108Z,22.00
2018-07-06T08:48:48.105Z,21.80
2018-07-06T08:56:54.815Z,22.20
2018-07-06T09:00:57.769Z,22.80
2018-07-06T09:05:01.389Z,23.10
2018-07-06T09:09:04.487Z,23.80
2018-07-06T09:13:07.678Z,24.30
2018-07-06T09:17:13.154Z,25.00
2018-07-06T09:21:15.938Z,25.20
2018-07-06T09:25:19.146Z,24.50
2018-07-06T09:29:22.218Z,24.20
2018-07-06T09:33:25.163Z,23.60
2018-07-06T09:37:28.020Z,24.10
2018-07-06T09:41:32.787Z,24.70
2018-07-06T09:45:35.618Z,24.90
2018-07-06T09:49:38.807Z,25.50
2018-07-06T09:53:42.003Z,24.70
2018-07-06T09:57:44.885Z,25.20
2018-07-06T10:01:47.774Z,25.70
2018-07-06T10:05:50.647Z,25.50
2018-07-06T10:09:53.656Z,25.50
2018-07-06T10:13:56.352Z,26.10
2018-07-06T10:17:59.278Z,25.80
2018-07-06T10:22:02.088Z,25.80
2018-07-06T10:26:05.027Z,25.80
2018-07-06T10:30:14.342Z,26.00
2018-07-06T10:34:17.925Z,26.10
2018-07-06T10:38:20.746Z,26.40
2018-07-06T10:42:23.610Z,26.40
2018-07-06T10:46:26.448Z,26.30
2018-07-06T10:50:29.358Z,26.90
2018-07-06T10:54:32.192Z,26.70
2018-07-06T10:58:34.979Z,27.30
2018-07-06T11:02:37.757Z,26.80
2018-07-06T11:06:40.599Z,26.70
2018-07-06T11:10:43.359Z,26.70
2018-07-06T11:14:46.128Z,27.00
2018-07-06T11:18:48.926Z,27.30
2018-07-06T11:22:51.709Z,27.40
2018-07-06T11:26:54.488Z,27.60
2018-07-06T11:30:57.345Z,27.70
2018-07-06T11:39:04.464Z,27.30
2018-07-06T11:47:10.119Z,27.40
2018-07-06T11:51:12.911Z,27.70
2018-07-06T11:55:15.769Z,27.30
2018-07-06T11:59:18.596Z,28.00
2018-07-06T12:03:22.158Z,27.80
2018-07-06T12:07:25.140Z,27.70
2018-07-06T12:11:27.997Z,28.30
2018-07-06T12:19:33.701Z,27.90
2018-07-06T12:23:36.547Z,27.60
2018-07-06T12:27:39.412Z,27.90
2018-07-06T12:31:42.304Z,28.00
2018-07-06T12:35:46.257Z,28.00
2018-07-06T12:39:49.212Z,27.90
2018-07-06T12:43:52.091Z,27.80
2018-07-06T12:47:54.903Z,28.20
2018-07-06T12:51:57.744Z,28.40
2018-07-06T12:56:00.619Z,28.40
2018-07-06T13:00:03.502Z,28.60
2018-07-06T13:04:06.396Z,28.30
2018-07-06T13:08:09.170Z,28.50
2018-07-06T13:12:11.960Z,28.20
2018-07-06T13:16:14.835Z,28.40
2018-07-06T13:20:17.673Z,28.40
2018-07-06T13:24:20.497Z,27.90
2018-07-06T13:28:23.441Z,27.90
2018-07-06T13:32:26.291Z,27.80
2018-07-06T13:36:29.133Z,27.90
2018-07-06T13:40:32.811Z,28.30
2018-07-06T13:44:35.653Z,28.30
2018-07-06T13:48:38.494Z,28.50
2018-07-06T13:52:41.285Z,28.30
2018-07-06T13:56:44.305Z,28.10
2018-07-06T14:00:47.834Z,28.10
2018-07-06T14:04:50.722Z,28.50
2018-07-06T14:08:53.578Z,27.90
2018-07-06T14:12:56.440Z,27.60
2018-07-06T14:16:59.301Z,27.30
2018-07-06T14:21:02.168Z,27.40
2018-07-06T14:25:05.027Z,27.30
2018-07-06T14:29:07.825Z,26.80
2018-07-06T14:33:10.686Z,26.60
2018-07-06T14:37:13.605Z,26.80
2018-07-06T14:41:16.453Z,27.00
2018-07-06T14:45:20.044Z,27.10
2018-07-06T14:49:22.844Z,27.40
2018-07-06T14:53:25.740Z,27.60
2018-07-06T14:57:28.587Z,27.50
2018-07-06T15:01:31.444Z,27.50
2018-07-06T15:05:35.164Z,27.00
2018-07-06T15:09:38.029Z,27.00
2018-07-06T15:13:40.872Z,27.00
2018-07-06T15:17:45.864Z,26.70
2018-07-06T15:21:48.742Z,26.50
2018-07-06T15:25:58.018Z,26.30
2018-07-06T15:30:01.016Z,26.20
2018-07-06T15:34:04.041Z,26.20
2018-07-06T15:38:06.884Z,26.30
2018-07-06T15:42:10.802Z,26.10
2018-07-06T15:46:13.588Z,26.30
2018-07-06T15:50:16.454Z,26.60
2018-07-06T15:54:21.433Z,26.60
2018-07-06T15:58:24.342Z,26.60
2018-07-06T16:02:27.221Z,26.50
2018-07-06T16:06:30.081Z,26.10
2018-07-06T16:10:32.946Z,26.10
2018-07-06T16:14:36.097Z,26.10
2018-07-06T16:18:39.065Z,25.80
2018-07-06T16:22:41.912Z,25.80
2018-07-06T16:26:51.429Z,25.80
2018-07-06T16:30:54.285Z,25.60
2018-07-06T16:34:57.077Z,25.30
2018-07-06T16:38:59.909Z,25.10
2018-07-06T16:43:02.864Z,25.10
2018-07-06T16:47:05.724Z,25.10
2018-07-06T16:51:08.534Z,25.20
2018-07-06T16:55:11.413Z,25.20
2018-07-06T16:59:14.338Z,25.20
2018-07-06T17:03:17.189Z,25.30
2018-07-06T17:07:20.132Z,25.40
2018-07-06T17:11:22.975Z,25.20
2018-07-06T17:15:25.779Z,24.80
2018-07-06T17:19:28.622Z,24.60
2018-07-06T17:23:31.465Z,24.60
2018-07-06T17:27:34.492Z,24.80
2018-07-06T17:31:37.591Z,24.90
2018-07-06T17:35:40.424Z,24.90
2018-07-06T17:39:43.349Z,24.80
2018-07-06T17:43:46.152Z,24.60
2018-07-06T17:47:49.008Z,24.40
2018-07-06T17:51:51.791Z,24.50
2018-07-06T17:55:54.544Z,24.40
2018-07-06T17:59:57.488Z,24.30
2018-07-06T18:04:00.362Z,24.30
2018-07-06T18:08:03.286Z,24.10
2018-07-06T18:12:06.120Z,24.00
2018-07-06T18:16:09.103Z,24.10
2018-07-06T18:20:11.949Z,24.10
2018-07-06T18:24:14.779Z,24.20
2018-07-06T18:28:17.642Z,24.30
2018-07-06T18:32:20.467Z,23.90
2018-07-06T18:36:23.283Z,23.90
2018-07-06T18:40:26.074Z,23.90
2018-07-06T18:44:28.932Z,23.50
2018-07-06T18:48:31.810Z,23.40
2018-07-06T18:52:34.624Z,23.40
2018-07-06T18:56:37.519Z,23.40
2018-07-06T19:00:40.395Z,23.40
2018-07-06T19:04:44.163Z,23.40
2018-07-06T19:08:46.986Z,23.50
2018-07-06T19:12:49.859Z,23.80
2018-07-06T19:16:52.734Z,23.70
2018-07-06T19:20:55.524Z,23.60
2018-07-06T19:24:58.436Z,23.30
2018-07-06T19:29:01.383Z,23.10
2018-07-06T19:33:04.278Z,22.80
2018-07-06T19:37:07.157Z,23.10
2018-07-06T19:41:10.005Z,23.40
2018-07-06T19:45:12.966Z,23.50
2018-07-06T19:49:15.890Z,23.50
2018-07-06T19:53:18.730Z,23.60
2018-07-06T19:57:21.535Z,23.70
2018-07-06T20:01:24.398Z,23.60
2018-07-06T20:05:27.222Z,23.50
2018-07-06T20:09:30.101Z,23.50
2018-07-06T20:15:23.377Z,23.10
2018-07-06T20:19:26.313Z,22.40
2018-07-06T20:23:29.289Z,22.30
2018-07-06T20:27:32.221Z,22.10
2018-07-06T20:31:35.083Z,21.90
2018-07-06T20:35:38.173Z,22.00
2018-07-06T20:39:41.046Z,21.90
2018-07-06T20:43:43.862Z,21.90
2018-07-06T20:47:46.838Z,22.10
2018-07-06T20:51:51.154Z,22.30
2018-07-06T20:55:54.000Z,22.20
2018-07-06T20:59:56.925Z,22.30
2018-07-06T21:03:59.817Z,21.60
2018-07-06T21:08:02.653Z,21.10
2018-07-06T21:12:05.516Z,21.10
2018-07-06T21:16:08.302Z,20.90
2018-07-06T21:20:11.167Z,20.60
2018-07-06T21:24:14.019Z,21.00
2018-07-06T21:28:17.339Z,20.80
2018-07-06T21:36:30.089Z,20.30
2018-07-06T21:40:32.889Z,20.20
2018-07-06T21:44:35.871Z,19.90
2018-07-06T21:48:38.660Z,19.90
2018-07-06T21:52:41.446Z,19.90
2018-07-06T21:56:44.277Z,20.30
2018-07-06T22:00:47.069Z,19.90
2018-07-06T22:04:49.980Z,19.90
2018-07-06T22:08:53.101Z,19.70
2018-07-06T22:12:56.030Z,20.20
2018-07-06T22:16:58.926Z,20.00
2018-07-06T22:21:01.704Z,19.60
2018-07-06T22:25:04.679Z,19.50
2018-07-06T22:29:07.525Z,19.50
2018-07-06T22:33:10.327Z,19.40
2018-07-06T22:37:13.213Z,19.40
2018-07-06T22:41:16.380Z,19.40
2018-07-06T22:45:19.447Z,19.30
2018-07-06T22:49:22.351Z,19.60
2018-07-06T22:53:25.297Z,19.60
2018-07-06T22:57:35.252Z,19.80
2018-07-06T23:01:38.145Z,19.70
2018-07-06T23:05:41.020Z,19.50
2018-07-06T23:09:43.906Z,19.50
2018-07-06T23:13:46.670Z,19.60
2018-07-06T23:17:49.619Z,19.20
2018-07-06T23:21:52.819Z,18.70
2018-07-06T23:25:55.710Z,19.10
2018-07-06T23:29:58.595Z,19.40
2018-07-06T23:34:01.585Z,18.80
2018-07-06T23:38:11.253Z,19.50
2018-07-06T23:42:14.145Z,19.30
2018-07-06T23:46:16.938Z,19.00
2018-07-06T23:50:20.527Z,18.60
2018-07-06T23:54:23.423Z,18.40
2018-07-06T23:58:26.187Z,18.50
